createdAt,value
2023-01-13T00:00:30.506Z,100776.41
2023-01-13T00:03:18.413Z,100774.85
2023-01-13T00:05:46.317Z,100773.81
2023-01-13T00:08:14.132Z,100772.89
2023-01-13T00:10:42.013Z,100774.89
2023-01-13T00:13:09.857Z,100773.20
2023-01-13T00:15:37.877Z,100772.85
2023-01-13T00:18:05.755Z,100777.91
2023-01-13T00:20:33.623Z,100776.82
2023-01-13T00:23:01.510Z,100773.49
2023-01-13T00:25:29.244Z,100772.60
2023-01-13T00:27:57.074Z,100773.54
2023-01-13T00:30:26.086Z,100776.48
2023-01-13T00:32:54.650Z,100781.52
2023-01-13T00:35:22.433Z,100779.80
2023-01-13T00:37:50.289Z,100775.37
2023-01-13T00:40:19.476Z,100778.59
2023-01-13T00:43:05.967Z,100777.38
2023-01-13T00:45:34.221Z,100774.11
2023-01-13T00:48:02.007Z,100770.05
2023-01-13T00:50:30.584Z,100768.41
2023-01-13T00:53:01.863Z,100767.04
2023-01-13T00:55:33.163Z,100765.20
2023-01-13T00:58:03.636Z,100762.90
2023-01-13T01:00:32.464Z,100763.39
2023-01-13T01:03:00.599Z,100762.94
2023-01-13T01:05:28.740Z,100755.70
2023-01-13T01:07:56.572Z,100755.48
2023-01-13T01:10:24.351Z,100756.56
2023-01-13T01:12:52.649Z,100751.86
2023-01-13T01:15:20.536Z,100746.61
2023-01-13T01:17:48.423Z,100742.17
2023-01-13T01:20:16.584Z,100738.83
2023-01-13T01:22:44.464Z,100736.83
2023-01-13T01:25:15.081Z,100740.65
2023-01-13T01:27:42.921Z,100741.21
2023-01-13T01:30:11.239Z,100738.89
2023-01-13T01:32:39.562Z,100738.96
2023-01-13T01:35:07.449Z,100738.72
2023-01-13T01:37:35.146Z,100735.67
2023-01-13T01:40:03.014Z,100735.20
2023-01-13T01:42:49.461Z,100737.78
2023-01-13T01:45:24.533Z,100733.30
2023-01-13T01:47:58.490Z,100731.80
2023-01-13T01:50:27.422Z,100732.77
2023-01-13T01:52:58.030Z,100728.11
2023-01-13T01:55:30.755Z,100730.05
2023-01-13T01:58:02.203Z,100728.15
2023-01-13T02:00:32.830Z,100731.38
2023-01-13T02:03:01.351Z,100730.02
2023-01-13T02:05:29.291Z,100726.33
2023-01-13T02:07:58.664Z,100724.33
2023-01-13T02:10:28.064Z,100726.25
2023-01-13T02:12:58.264Z,100717.14
2023-01-13T02:15:26.057Z,100715.16
2023-01-13T02:18:14.057Z,100715.23
2023-01-13T02:21:00.517Z,100715.54
2023-01-13T02:23:51.396Z,100718.26
2023-01-13T02:26:19.261Z,100714.40
2023-01-13T02:29:06.927Z,100716.56
2023-01-13T02:31:43.725Z,100714.17
2023-01-13T02:34:23.697Z,100717.00
2023-01-13T02:36:58.114Z,100714.39
2023-01-13T02:39:44.867Z,100712.81
2023-01-13T02:42:37.641Z,100713.98
2023-01-13T02:45:15.141Z,100716.33
2023-01-13T02:47:44.403Z,100720.08
2023-01-13T02:50:14.979Z,100719.05
2023-01-13T02:52:45.958Z,100719.80
2023-01-13T02:55:19.037Z,100726.55
2023-01-13T02:57:48.412Z,100730.13
2023-01-13T03:00:20.866Z,100733.95
2023-01-13T03:02:49.540Z,100733.83
2023-01-13T03:05:17.853Z,100732.30
2023-01-13T03:08:01.158Z,100732.02
2023-01-13T03:10:36.169Z,100732.42
2023-01-13T03:13:22.706Z,100726.45
2023-01-13T03:16:06.369Z,100728.17
2023-01-13T03:18:38.807Z,100726.72
2023-01-13T03:21:15.078Z,100726.59
2023-01-13T03:23:51.852Z,100726.69
2023-01-13T03:26:40.994Z,100724.64
2023-01-13T03:29:18.571Z,100724.22
2023-01-13T03:32:06.575Z,100726.50
2023-01-13T03:34:39.841Z,100726.85
2023-01-13T03:37:09.156Z,100730.95
2023-01-13T03:39:40.218Z,100733.42
2023-01-13T03:42:11.114Z,100734.75
2023-01-13T03:44:43.022Z,100730.05
2023-01-13T03:47:29.764Z,100732.54
2023-01-13T03:50:15.120Z,100732.73
2023-01-13T03:52:51.241Z,100733.00
2023-01-13T03:55:22.790Z,100732.52
2023-01-13T03:58:00.255Z,100731.46
2023-01-13T04:00:31.970Z,100734.40
2023-01-13T04:03:08.005Z,100736.15
2023-01-13T04:05:39.327Z,100743.09
2023-01-13T04:08:25.072Z,100748.25
2023-01-13T04:11:12.657Z,100748.77
2023-01-13T04:13:42.282Z,100753.05
2023-01-13T04:16:11.407Z,100755.40
2023-01-13T04:18:39.728Z,100755.48
2023-01-13T04:21:08.097Z,100754.54
2023-01-13T04:23:35.926Z,100757.14
2023-01-13T04:26:04.492Z,100758.03
2023-01-13T04:28:33.678Z,100757.13
2023-01-13T04:31:01.716Z,100758.42
2023-01-13T04:33:29.705Z,100760.23
2023-01-13T04:35:57.651Z,100758.45
2023-01-13T04:38:25.423Z,100756.67
2023-01-13T04:40:53.201Z,100756.66
2023-01-13T04:43:21.239Z,100758.38
2023-01-13T04:45:49.124Z,100759.32
2023-01-13T04:48:17.005Z,100759.98
2023-01-13T04:50:44.784Z,100757.83
2023-01-13T04:53:12.648Z,100756.57
2023-01-13T04:55:40.611Z,100757.61
2023-01-13T04:58:09.950Z,100758.36
2023-01-13T05:00:38.425Z,100758.47
2023-01-13T05:03:06.404Z,100759.03
2023-01-13T05:05:34.254Z,100758.17
2023-01-13T05:08:02.122Z,100758.27
2023-01-13T05:10:30.291Z,100752.73
2023-01-13T05:13:16.790Z,100750.15
2023-01-13T05:16:06.774Z,100752.69
2023-01-13T05:18:34.960Z,100751.09
2023-01-13T05:21:02.812Z,100753.90
2023-01-13T05:23:49.673Z,100757.94
2023-01-13T05:26:17.499Z,100761.64
2023-01-13T05:28:45.608Z,100758.81
2023-01-13T05:31:14.953Z,100759.73
2023-01-13T05:33:42.972Z,100765.76
2023-01-13T05:36:10.811Z,100769.55
2023-01-13T05:38:38.732Z,100769.05
2023-01-13T05:41:25.342Z,100769.23
2023-01-13T05:43:53.585Z,100763.02
2023-01-13T05:46:21.616Z,100762.08
2023-01-13T05:48:49.899Z,100764.74
2023-01-13T05:51:17.669Z,100753.06
2023-01-13T05:53:45.547Z,100749.48
2023-01-13T05:56:13.660Z,100758.01
2023-01-13T05:58:41.471Z,100760.27
2023-01-13T06:01:10.053Z,100758.30
2023-01-13T06:03:38.287Z,100765.27
2023-01-13T06:06:09.075Z,100770.67
2023-01-13T06:08:39.391Z,100775.23
2023-01-13T06:11:07.944Z,100777.01
2023-01-13T06:13:35.796Z,100779.19
2023-01-13T06:16:03.800Z,100779.13
2023-01-13T06:18:31.822Z,100782.14
2023-01-13T06:20:59.923Z,100783.73
2023-01-13T06:23:28.476Z,100789.48
2023-01-13T06:26:00.219Z,100792.54
2023-01-13T06:28:30.816Z,100786.11
2023-01-13T06:31:00.419Z,100790.55
2023-01-13T06:33:33.891Z,100796.71
2023-01-13T06:36:04.603Z,100794.02
2023-01-13T06:38:34.489Z,100792.65
2023-01-13T06:41:02.750Z,100794.46
2023-01-13T06:43:30.543Z,100795.24
2023-01-13T06:45:58.462Z,100798.02
2023-01-13T06:48:30.092Z,100800.63
2023-01-13T06:50:57.935Z,100804.16
2023-01-13T06:53:26.065Z,100805.13
2023-01-13T06:55:53.962Z,100807.01
2023-01-13T06:58:21.760Z,100804.73
2023-01-13T07:00:51.470Z,100803.55
2023-01-13T07:03:20.017Z,100804.20
2023-01-13T07:05:52.704Z,100805.45
2023-01-13T07:08:20.937Z,100810.39
2023-01-13T07:10:48.770Z,100818.73
2023-01-13T07:13:35.345Z,100824.60
2023-01-13T07:16:05.044Z,100825.14
2023-01-13T07:18:34.455Z,100824.81
2023-01-13T07:21:03.680Z,100821.89
2023-01-13T07:23:32.650Z,100825.66
2023-01-13T07:26:00.803Z,100827.86
2023-01-13T07:28:29.990Z,100822.92
2023-01-13T07:30:58.951Z,100823.69
2023-01-13T07:33:27.262Z,100819.14
2023-01-13T07:35:59.640Z,100821.09
2023-01-13T07:38:28.018Z,100820.79
2023-01-13T07:40:55.972Z,100819.54
2023-01-13T07:43:33.284Z,100819.77
2023-01-13T07:46:03.271Z,100824.63
2023-01-13T07:48:32.113Z,100819.91
2023-01-13T07:51:07.590Z,100818.44
2023-01-13T07:53:36.028Z,100817.09
2023-01-13T07:56:07.414Z,100817.55
2023-01-13T07:58:36.039Z,100820.56
2023-01-13T08:01:11.126Z,100823.80
2023-01-13T08:03:39.460Z,100824.45
2023-01-13T08:06:08.135Z,100830.02
2023-01-13T08:08:39.117Z,100830.04
2023-01-13T08:11:07.797Z,100829.20
2023-01-13T08:13:36.733Z,100828.55
2023-01-13T08:16:06.524Z,100829.88
2023-01-13T08:18:35.309Z,100828.64
2023-01-13T08:21:05.957Z,100830.90
2023-01-13T08:23:34.751Z,100833.16
2023-01-13T08:26:04.179Z,100837.06
2023-01-13T08:28:32.013Z,100837.48
2023-01-13T08:31:02.962Z,100838.71
2023-01-13T08:33:31.361Z,100841.11
2023-01-13T08:36:02.185Z,100842.09
2023-01-13T08:38:30.100Z,100845.73
2023-01-13T08:40:57.956Z,100842.92
2023-01-13T08:43:25.893Z,100845.96
2023-01-13T08:45:58.380Z,100843.96
2023-01-13T08:48:28.245Z,100843.74
2023-01-13T08:51:05.970Z,100847.71
2023-01-13T08:53:33.917Z,100845.55
2023-01-13T08:56:01.991Z,100844.09
2023-01-13T08:58:29.843Z,100844.85
2023-01-13T09:00:57.939Z,100838.44
2023-01-13T09:03:25.910Z,100838.41
2023-01-13T09:05:53.729Z,100835.45
2023-01-13T09:08:21.593Z,100835.77
2023-01-13T09:10:49.411Z,100837.78
2023-01-13T09:13:17.327Z,100839.10
2023-01-13T09:15:46.145Z,100835.86
2023-01-13T09:18:14.429Z,100828.20
2023-01-13T09:20:42.251Z,100825.08
2023-01-13T09:23:11.437Z,100821.79
2023-01-13T09:25:40.782Z,100819.25
2023-01-13T09:28:08.835Z,100817.98
2023-01-13T09:30:37.636Z,100821.29
2023-01-13T09:33:25.699Z,100819.47
2023-01-13T09:35:58.102Z,100820.53
2023-01-13T09:38:25.872Z,100819.48
2023-01-13T09:40:54.999Z,100822.10
2023-01-13T09:43:52.745Z,100820.34
2023-01-13T09:46:47.374Z,100818.31
2023-01-13T09:49:22.947Z,100813.57
2023-01-13T09:52:09.652Z,100808.59
2023-01-13T09:54:57.802Z,100808.11
2023-01-13T09:57:27.448Z,100806.67
2023-01-13T09:59:55.270Z,100807.27
2023-01-13T10:02:41.855Z,100806.41
2023-01-13T10:05:35.120Z,100799.42
2023-01-13T10:08:07.833Z,100790.68
2023-01-13T10:10:38.888Z,100786.39
2023-01-13T10:13:14.858Z,100782.32
2023-01-13T10:15:46.850Z,100779.54
2023-01-13T10:18:17.860Z,100776.40
2023-01-13T10:20:52.415Z,100773.95
2023-01-13T10:23:46.042Z,100769.71
2023-01-13T10:26:13.863Z,100768.48
2023-01-13T10:28:41.671Z,100771.56
2023-01-13T10:31:14.910Z,100773.19
2023-01-13T10:33:42.769Z,100771.66
2023-01-13T10:36:17.963Z,100772.38
2023-01-13T10:38:48.703Z,100771.41
2023-01-13T10:41:16.611Z,100768.39
2023-01-13T10:44:04.429Z,100767.39
2023-01-13T10:46:34.045Z,100761.71
2023-01-13T10:49:04.002Z,100758.84
2023-01-13T10:51:35.213Z,100754.31
2023-01-13T10:54:13.007Z,100757.14
2023-01-13T10:56:42.399Z,100753.92
2023-01-13T10:59:10.194Z,100750.56
2023-01-13T11:01:38.209Z,100741.59
2023-01-13T11:04:26.443Z,100740.27
2023-01-13T11:06:54.475Z,100737.98
2023-01-13T11:09:22.675Z,100737.20
2023-01-13T11:11:55.431Z,100735.31
2023-01-13T11:14:46.739Z,100730.98
2023-01-13T11:17:26.916Z,100727.25
2023-01-13T11:20:02.008Z,100723.39
2023-01-13T11:22:34.117Z,100723.50
2023-01-13T11:25:04.115Z,100723.52
2023-01-13T11:27:47.865Z,100714.73
2023-01-13T11:30:24.913Z,100712.35
2023-01-13T11:32:55.177Z,100713.66
2023-01-13T11:35:24.313Z,100714.44
2023-01-13T11:37:54.753Z,100716.27
2023-01-13T11:40:22.596Z,100709.95
2023-01-13T11:43:08.808Z,100711.02
2023-01-13T11:45:40.180Z,100712.06
2023-01-13T11:48:12.236Z,100715.92
2023-01-13T11:50:43.260Z,100717.58
2023-01-13T11:53:23.599Z,100716.41
2023-01-13T11:55:54.642Z,100713.05
2023-01-13T11:58:22.621Z,100710.74
2023-01-13T12:01:09.109Z,100710.27
2023-01-13T12:03:41.101Z,100706.15
2023-01-13T12:06:14.670Z,100702.30
2023-01-13T12:09:03.333Z,100700.88
2023-01-13T12:11:34.010Z,100700.26
2023-01-13T12:14:15.607Z,100700.02
2023-01-13T12:16:49.033Z,100701.18
2023-01-13T12:19:26.488Z,100704.39
2023-01-13T12:22:09.533Z,100704.44
2023-01-13T12:24:43.835Z,100700.00
2023-01-13T12:27:12.263Z,100700.36
2023-01-13T12:29:40.453Z,100700.27
2023-01-13T12:32:13.371Z,100702.99
2023-01-13T12:35:01.447Z,100699.20
2023-01-13T12:37:35.576Z,100700.47
2023-01-13T12:40:03.365Z,100700.27
2023-01-13T12:42:54.075Z,100701.34
2023-01-13T12:45:23.898Z,100702.76
2023-01-13T12:47:52.144Z,100703.24
2023-01-13T12:50:26.790Z,100708.45
2023-01-13T12:52:55.724Z,100712.80
2023-01-13T12:55:26.495Z,100715.04
2023-01-13T12:58:00.560Z,100715.16
2023-01-13T13:00:32.462Z,100717.20
2023-01-13T13:03:12.678Z,100715.66
2023-01-13T13:05:58.950Z,100714.83
2023-01-13T13:08:45.253Z,100714.30
2023-01-13T13:11:32.936Z,100717.64
2023-01-13T13:14:01.694Z,100719.35
2023-01-13T13:16:30.090Z,100719.88
2023-01-13T13:19:27.462Z,100724.23
2023-01-13T13:22:13.800Z,100725.85
2023-01-13T13:24:51.142Z,100727.49
2023-01-13T13:27:21.742Z,100729.52
2023-01-13T13:29:53.518Z,100734.16
2023-01-13T13:32:36.475Z,100735.74
2023-01-13T13:35:16.694Z,100738.20
2023-01-13T13:38:24.612Z,100741.20
2023-01-13T13:41:11.137Z,100744.27
2023-01-13T13:44:02.464Z,100740.58
2023-01-13T13:46:47.923Z,100737.90
2023-01-13T13:49:17.323Z,100735.12
2023-01-13T13:52:02.925Z,100734.78
2023-01-13T13:54:31.788Z,100733.17
2023-01-13T13:57:01.039Z,100728.33
2023-01-13T13:59:34.535Z,100731.44
2023-01-13T14:02:03.986Z,100734.80
2023-01-13T14:04:39.256Z,100735.98
2023-01-13T14:07:18.631Z,100735.37
2023-01-13T14:09:53.777Z,100729.68
2023-01-13T14:12:22.981Z,100726.44
2023-01-13T14:14:51.531Z,100724.45
2023-01-13T14:17:25.067Z,100727.63
2023-01-13T14:19:56.501Z,100726.66
2023-01-13T14:22:24.557Z,100729.63
2023-01-13T14:24:57.691Z,100732.56
2023-01-13T14:27:29.903Z,100727.86
2023-01-13T14:30:00.365Z,100732.23
2023-01-13T14:32:32.708Z,100734.73
2023-01-13T14:35:00.822Z,100733.41
2023-01-13T14:37:28.610Z,100729.55
2023-01-13T14:39:56.547Z,100728.80
2023-01-13T14:42:25.479Z,100733.04
2023-01-13T14:44:54.086Z,100732.45
2023-01-13T14:47:32.363Z,100732.70
2023-01-13T14:50:05.755Z,100734.36
2023-01-13T14:52:35.123Z,100733.94
2023-01-13T14:55:06.991Z,100730.17
2023-01-13T14:57:35.666Z,100728.16
2023-01-13T15:00:15.549Z,100730.60
2023-01-13T15:03:03.547Z,100730.71
2023-01-13T15:05:33.288Z,100727.55
2023-01-13T15:08:06.675Z,100724.70
2023-01-13T15:10:45.628Z,100720.48
2023-01-13T15:13:22.903Z,100722.36
2023-01-13T15:15:52.339Z,100722.36
2023-01-13T15:18:20.246Z,100727.26
2023-01-13T15:20:48.073Z,100723.36
2023-01-13T15:23:15.994Z,100725.67
2023-01-13T15:25:45.409Z,100727.07
2023-01-13T15:28:19.526Z,100729.13
2023-01-13T15:30:47.977Z,100731.91
2023-01-13T15:33:15.989Z,100731.58
2023-01-13T15:35:45.992Z,100735.76
2023-01-13T15:38:15.084Z,100733.87
2023-01-13T15:40:43.447Z,100733.59
2023-01-13T15:43:40.193Z,100732.98
2023-01-13T15:46:34.094Z,100730.27
2023-01-13T15:49:03.973Z,100732.33
2023-01-13T15:51:31.845Z,100732.29
2023-01-13T15:54:02.563Z,100731.80
2023-01-13T15:56:30.542Z,100729.48
2023-01-13T15:58:59.031Z,100728.22
2023-01-13T16:01:26.890Z,100730.52
2023-01-13T16:03:56.507Z,100731.59
2023-01-13T16:06:27.945Z,100728.73
2023-01-13T16:08:58.238Z,100724.39
2023-01-13T16:11:26.067Z,100724.71
2023-01-13T16:13:54.076Z,100723.79
2023-01-13T16:16:23.192Z,100724.61
2023-01-13T16:18:51.586Z,100732.69
2023-01-13T16:21:20.794Z,100732.14
2023-01-13T16:23:49.285Z,100727.99
2023-01-13T16:26:25.046Z,100728.74
2023-01-13T16:28:54.368Z,100728.18
2023-01-13T16:31:32.097Z,100732.14
2023-01-13T16:34:01.529Z,100730.96
2023-01-13T16:36:30.781Z,100724.55
2023-01-13T16:38:58.718Z,100724.06
2023-01-13T16:41:27.569Z,100722.59
2023-01-13T16:43:55.342Z,100721.42
2023-01-13T16:46:24.987Z,100724.43
2023-01-13T16:48:54.095Z,100726.48
2023-01-13T16:51:23.179Z,100725.31
2023-01-13T16:53:51.450Z,100730.48
2023-01-13T16:56:27.317Z,100730.63
2023-01-13T16:58:56.721Z,100728.80
2023-01-13T17:01:25.995Z,100732.38
2023-01-13T17:03:54.525Z,100731.98
2023-01-13T17:06:29.114Z,100732.24
2023-01-13T17:09:24.526Z,100734.34
2023-01-13T17:11:53.126Z,100733.06
2023-01-13T17:14:23.526Z,100733.48
2023-01-13T17:16:52.655Z,100733.64
2023-01-13T17:19:22.057Z,100736.92
2023-01-13T17:21:51.178Z,100739.56
2023-01-13T17:24:19.089Z,100743.27
2023-01-13T17:26:49.385Z,100741.27
2023-01-13T17:29:18.532Z,100740.92
2023-01-13T17:31:46.425Z,100742.02
2023-01-13T17:34:14.715Z,100743.22
2023-01-13T17:36:45.551Z,100743.05
2023-01-13T17:39:17.345Z,100744.29
2023-01-13T17:41:45.716Z,100744.17
2023-01-13T17:44:14.700Z,100743.98
2023-01-13T17:46:42.715Z,100744.80
2023-01-13T17:49:21.866Z,100743.30
2023-01-13T17:51:51.187Z,100745.33
2023-01-13T17:54:19.939Z,100744.89
2023-01-13T17:56:47.807Z,100745.38
2023-01-13T17:59:16.726Z,100746.71
2023-01-13T18:01:44.802Z,100749.11
2023-01-13T18:04:20.597Z,100754.02
2023-01-13T18:06:48.962Z,100755.33
2023-01-13T18:09:19.607Z,100757.40
2023-01-13T18:11:47.503Z,100751.41
2023-01-13T18:14:16.245Z,100752.79
2023-01-13T18:16:44.157Z,100748.84
2023-01-13T18:19:30.840Z,100743.17
2023-01-13T18:22:17.560Z,100744.02
2023-01-13T18:25:04.182Z,100739.80
2023-01-13T18:27:33.946Z,100739.05
2023-01-13T18:30:02.303Z,100742.15
2023-01-13T18:32:32.802Z,100741.89
2023-01-13T18:35:06.214Z,100741.74
2023-01-13T18:37:38.953Z,100737.36
2023-01-13T18:40:09.325Z,100735.75
2023-01-13T18:42:56.315Z,100733.84
2023-01-13T18:45:28.797Z,100734.37
2023-01-13T18:47:58.041Z,100731.48
2023-01-13T18:50:26.343Z,100725.39
2023-01-13T18:52:54.529Z,100726.48
2023-01-13T18:55:23.119Z,100728.39
2023-01-13T18:57:52.260Z,100727.39
2023-01-13T19:00:22.312Z,100725.02
2023-01-13T19:05:36.366Z,100723.98
2023-01-13T19:08:04.869Z,100725.48
2023-01-13T19:10:33.394Z,100722.98
2023-01-13T19:13:01.964Z,100725.61
2023-01-13T19:15:30.386Z,100722.98
2023-01-13T19:17:59.127Z,100720.50
2023-01-13T19:20:27.657Z,100717.45
2023-01-13T19:22:56.315Z,100715.61
2023-01-13T19:25:24.749Z,100713.98
2023-01-13T19:27:53.359Z,100715.50
2023-01-13T19:30:22.339Z,100719.63
2023-01-13T19:32:51.861Z,100724.03
2023-01-13T19:35:20.312Z,100723.58
2023-01-13T19:37:49.621Z,100721.39
2023-01-13T19:40:18.400Z,100719.30
2023-01-13T19:43:05.339Z,100717.45
2023-01-13T19:45:35.598Z,100719.04
2023-01-13T19:48:06.097Z,100720.49
2023-01-13T19:50:38.929Z,100717.70
2023-01-13T19:53:07.871Z,100720.41
2023-01-13T19:55:35.846Z,100722.21
2023-01-13T19:58:04.181Z,100715.90
2023-01-13T20:00:35.085Z,100718.17
2023-01-13T20:03:04.995Z,100714.63
2023-01-13T20:05:33.008Z,100714.71
2023-01-13T20:08:00.819Z,100718.61
2023-01-13T20:10:31.536Z,100717.59
2023-01-13T20:12:59.358Z,100715.91
2023-01-13T20:15:28.128Z,100710.44
2023-01-13T20:17:58.072Z,100705.69
2023-01-13T20:20:26.901Z,100703.47
2023-01-13T20:22:54.775Z,100700.25
2023-01-13T20:25:23.910Z,100698.55
2023-01-13T20:27:51.796Z,100698.36
2023-01-13T20:30:19.723Z,100694.98
2023-01-13T20:32:47.639Z,100694.85
2023-01-13T20:35:15.643Z,100694.39
2023-01-13T20:37:43.788Z,100695.21
2023-01-13T20:40:14.189Z,100698.66
2023-01-13T20:42:45.381Z,100698.42
2023-01-13T20:45:17.330Z,100696.85
2023-01-13T20:47:45.942Z,100692.48
2023-01-13T20:50:14.777Z,100694.13
2023-01-13T20:52:42.651Z,100696.84
2023-01-13T20:55:10.634Z,100692.89
2023-01-13T20:57:39.358Z,100692.96
2023-01-13T21:00:07.915Z,100694.57
2023-01-13T21:02:35.678Z,100692.02
2023-01-13T21:05:03.480Z,100691.08
2023-01-13T21:07:31.331Z,100684.93
2023-01-13T21:09:59.189Z,100685.30
2023-01-13T21:12:46.250Z,100686.38
2023-01-13T21:15:17.089Z,100691.56
2023-01-13T21:18:03.487Z,100698.66
2023-01-13T21:20:33.670Z,100703.40
2023-01-13T21:23:02.253Z,100699.98
2023-01-13T21:25:30.877Z,100704.35
2023-01-13T21:28:04.589Z,100703.38
2023-01-13T21:30:33.516Z,100702.95
2023-01-13T21:33:03.221Z,100703.77
2023-01-13T21:35:31.138Z,100698.74
2023-01-13T21:37:59.044Z,100696.98
2023-01-13T21:40:27.058Z,100701.17
2023-01-13T21:43:13.723Z,100699.31
2023-01-13T21:46:00.374Z,100697.55
2023-01-13T21:48:29.654Z,100700.20
2023-01-13T21:51:00.314Z,100700.37
2023-01-13T21:53:28.214Z,100703.12
2023-01-13T21:55:56.075Z,100701.55
2023-01-13T21:58:25.143Z,100699.01
2023-01-13T22:00:54.164Z,100695.05
2023-01-13T22:03:22.122Z,100695.34
2023-01-13T22:05:54.205Z,100695.67
2023-01-13T22:08:22.043Z,100699.29
2023-01-13T22:11:00.193Z,100701.48
2023-01-13T22:13:48.032Z,100703.96
2023-01-13T22:16:16.186Z,100707.08
2023-01-13T22:18:46.371Z,100706.06
2023-01-13T22:21:14.209Z,100705.40
2023-01-13T22:23:42.264Z,100711.17
2023-01-13T22:26:10.683Z,100712.01
2023-01-13T22:28:43.057Z,100712.21
2023-01-13T22:31:12.356Z,100714.61
2023-01-13T22:33:40.801Z,100712.34
2023-01-13T22:36:10.754Z,100710.42
2023-01-13T22:38:39.054Z,100709.39
2023-01-13T22:41:08.748Z,100705.13
2023-01-13T22:43:37.300Z,100705.70
2023-01-13T22:46:07.171Z,100708.02
2023-01-13T22:48:35.285Z,100707.65
2023-01-13T22:51:14.247Z,100710.48
2023-01-13T22:53:42.663Z,100712.13
2023-01-13T22:56:15.830Z,100709.41
2023-01-13T22:58:43.923Z,100708.09
2023-01-13T23:01:16.003Z,100704.80
2023-01-13T23:03:47.822Z,100701.07
2023-01-13T23:06:18.357Z,100703.71
2023-01-13T23:08:46.803Z,100702.04
2023-01-13T23:11:17.158Z,100702.52
2023-01-13T23:13:45.197Z,100698.65
2023-01-13T23:16:14.993Z,100696.73
2023-01-13T23:18:45.418Z,100696.80
2023-01-13T23:21:14.646Z,100692.81
2023-01-13T23:23:42.557Z,100688.90
2023-01-13T23:26:10.947Z,100688.86
2023-01-13T23:28:39.015Z,100688.51
2023-01-13T23:31:10.111Z,100679.56
2023-01-13T23:33:38.261Z,100677.79
2023-01-13T23:36:07.122Z,100672.42
2023-01-13T23:38:35.064Z,100672.34
2023-01-13T23:41:04.897Z,100676.36
2023-01-13T23:43:32.825Z,100682.25
2023-01-13T23:46:02.345Z,100679.39
2023-01-13T23:48:30.519Z,100679.35
2023-01-13T23:50:59.615Z,100678.52
2023-01-13T23:53:33.832Z,100678.94
2023-01-13T23:56:02.571Z,100677.20
2023-01-13T23:58:30.828Z,100676.91
